Current Weather

Teterboro

Teterboro, New Jersey (KTEB)

Report from: Tuesday, May 21, 2024 12:51 PM EDT
Current time: Tuesday, May 21, 2024 1:45 PM EDT

Nearby weather – Weather history – Daily summaries
Weather forecast

Temperature26.7°C (80.1°F)
Heat index27.6°C (81.7°F)
Dew point16.7°C (62.1°F)
Winds 4 kts (2.1 m/s, 4.6 mph) Vrb
Winds variableWinds variable
Visibility10 mi. (16.1 km)
Clouds Sky clear
Altimeter29.96 in.Hg (1015 mB)
Relative humidity54 %
Density altitude1,576 ft. (480 m)
Sea-level pressure101.4 kPa (1014 mB, 29.95 in.Hg)
Remarks Automated weather observing station with precipitation discriminator
Flight conditions Visual Meteorological Conditions
Raw dataKTEB 211651Z VRB04KT 10SM CLR 27/17 A2996 RMK AO2 SLP143 T02670167
An error has occurred. This application may no longer respond until reloaded. Reload 🗙